The Little Minch, United Kingdom
Current Conditions -  °F | °C
As of 9:20 PM on Friday 28 Nov 2014 (Local Time) from EGPL Reporting Station
Clear Clear  
Wind Chill:   Ceiling: Unl
Heat Index:   Visibility: 6mi
Dew Point:   Wind: 5mph
Humidity: 93%   Direction: 130°SE
Pressure: 29.85"   Gusts: NA
Location:  57.5°N, 7°W
Report Text: EGPL 282120Z AUTO 13004KT 9999 NCD 06/05 Q1011
Loading
Personal Weather Stations






























Interactive Weather Map New forecast layout! Learn more

10-Day Weather Forecast

Advertisements
Track Severe Weather on mobile